sensor_id;sensor_type;location;lat;lon;timestamp;P1;durP1;ratioP1;P2;durP2;ratioP2
72864;SDS011;61000;48.120;11.548;2023-11-22T00:02:15;19.85;;;11.82;;
72864;SDS011;61000;48.120;11.548;2023-11-22T00:04:43;22.52;;;11.70;;
72864;SDS011;61000;48.120;11.548;2023-11-22T00:07:10;19.05;;;11.30;;
72864;SDS011;61000;48.120;11.548;2023-11-22T00:09:38;19.10;;;10.77;;
72864;SDS011;61000;48.120;11.548;2023-11-22T00:12:07;18.65;;;10.15;;
72864;SDS011;61000;48.120;11.548;2023-11-22T00:14:34;15.20;;;10.60;;
72864;SDS011;61000;48.120;11.548;2023-11-22T00:17:01;14.32;;;10.02;;
72864;SDS011;61000;48.120;11.548;2023-11-22T00:19:29;15.82;;;9.38;;
72864;SDS011;61000;48.120;11.548;2023-11-22T00:21:56;17.80;;;10.32;;
72864;SDS011;61000;48.120;11.548;2023-11-22T00:24:22;20.45;;;10.82;;
72864;SDS011;61000;48.120;11.548;2023-11-22T00:26:51;17.80;;;11.43;;
72864;SDS011;61000;48.120;11.548;2023-11-22T00:29:17;14.38;;;9.75;;
72864;SDS011;61000;48.120;11.548;2023-11-22T00:31:44;21.15;;;10.73;;
72864;SDS011;61000;48.120;11.548;2023-11-22T00:34:11;16.00;;;9.35;;
72864;SDS011;61000;48.120;11.548;2023-11-22T00:36:38;20.90;;;10.95;;
72864;SDS011;61000;48.120;11.548;2023-11-22T00:39:05;18.35;;;11.57;;
72864;SDS011;61000;48.120;11.548;2023-11-22T00:41:33;17.60;;;10.43;;
72864;SDS011;61000;48.120;11.548;2023-11-22T00:44:02;16.45;;;11.52;;
72864;SDS011;61000;48.120;11.548;2023-11-22T00:46:31;18.52;;;10.40;;
72864;SDS011;61000;48.120;11.548;2023-11-22T00:48:57;24.48;;;12.50;;
72864;SDS011;61000;48.120;11.548;2023-11-22T00:51:24;18.63;;;10.43;;
72864;SDS011;61000;48.120;11.548;2023-11-22T00:53:52;16.52;;;10.75;;
72864;SDS011;61000;48.120;11.548;2023-11-22T00:56:20;17.05;;;10.90;;
72864;SDS011;61000;48.120;11.548;2023-11-22T00:58:46;18.10;;;11.48;;
72864;SDS011;61000;48.120;11.548;2023-11-22T01:01:16;15.93;;;10.82;;
72864;SDS011;61000;48.120;11.548;2023-11-22T01:03:44;19.60;;;11.57;;
72864;SDS011;61000;48.120;11.548;2023-11-22T01:06:12;17.63;;;10.82;;
72864;SDS011;61000;48.120;11.548;2023-11-22T01:08:39;15.48;;;10.52;;
72864;SDS011;61000;48.120;11.548;2023-11-22T01:11:07;15.23;;;10.77;;
72864;SDS011;61000;48.120;11.548;2023-11-22T01:13:34;16.02;;;11.07;;
72864;SDS011;61000;48.120;11.548;2023-11-22T01:16:05;18.50;;;10.95;;
72864;SDS011;61000;48.120;11.548;2023-11-22T01:18:34;17.45;;;9.77;;
72864;SDS011;61000;48.120;11.548;2023-11-22T01:21:01;14.30;;;9.32;;
72864;SDS011;61000;48.120;11.548;2023-11-22T01:23:29;13.75;;;9.50;;
72864;SDS011;61000;48.120;11.548;2023-11-22T01:25:57;14.27;;;8.90;;
72864;SDS011;61000;48.120;11.548;2023-11-22T01:28:24;14.70;;;8.73;;
72864;SDS011;61000;48.120;11.548;2023-11-22T01:30:52;13.82;;;8.95;;
72864;SDS011;61000;48.120;11.548;2023-11-22T01:33:19;15.23;;;10.13;;
72864;SDS011;61000;48.120;11.548;2023-11-22T01:35:48;15.88;;;9.25;;
72864;SDS011;61000;48.120;11.548;2023-11-22T01:38:15;14.57;;;9.70;;
72864;SDS011;61000;48.120;11.548;2023-11-22T01:40:43;14.73;;;9.52;;
72864;SDS011;61000;48.120;11.548;2023-11-22T01:43:12;15.65;;;10.23;;
72864;SDS011;61000;48.120;11.548;2023-11-22T01:45:41;14.43;;;9.15;;
72864;SDS011;61000;48.120;11.548;2023-11-22T01:48:08;17.83;;;9.75;;
72864;SDS011;61000;48.120;11.548;2023-11-22T01:50:37;14.85;;;9.98;;
72864;SDS011;61000;48.120;11.548;2023-11-22T01:53:07;14.85;;;9.48;;
72864;SDS011;61000;48.120;11.548;2023-11-22T01:55:35;17.90;;;10.77;;
72864;SDS011;61000;48.120;11.548;2023-11-22T01:58:02;17.20;;;10.55;;
72864;SDS011;61000;48.120;11.548;2023-11-22T02:00:30;12.57;;;9.20;;
72864;SDS011;61000;48.120;11.548;2023-11-22T02:03:01;15.32;;;9.43;;
72864;SDS011;61000;48.120;11.548;2023-11-22T02:05:29;12.65;;;8.95;;
72864;SDS011;61000;48.120;11.548;2023-11-22T02:07:56;12.68;;;9.50;;
72864;SDS011;61000;48.120;11.548;2023-11-22T02:10:25;16.95;;;9.95;;
72864;SDS011;61000;48.120;11.548;2023-11-22T02:12:52;13.60;;;9.80;;
72864;SDS011;61000;48.120;11.548;2023-11-22T02:15:19;18.10;;;10.25;;
72864;SDS011;61000;48.120;11.548;2023-11-22T02:17:45;12.02;;;7.95;;
72864;SDS011;61000;48.120;11.548;2023-11-22T02:20:13;13.27;;;9.40;;
72864;SDS011;61000;48.120;11.548;2023-11-22T02:22:43;10.30;;;7.80;;
72864;SDS011;61000;48.120;11.548;2023-11-22T02:25:12;7.95;;;5.75;;
72864;SDS011;61000;48.120;11.548;2023-11-22T02:27:40;7.25;;;5.38;;
72864;SDS011;61000;48.120;11.548;2023-11-22T02:30:07;6.60;;;5.10;;
72864;SDS011;61000;48.120;11.548;2023-11-22T02:32:36;4.95;;;4.38;;
72864;SDS011;61000;48.120;11.548;2023-11-22T02:35:03;5.45;;;4.47;;
72864;SDS011;61000;48.120;11.548;2023-11-22T02:37:32;6.57;;;4.45;;
72864;SDS011;61000;48.120;11.548;2023-11-22T02:40:00;5.05;;;3.80;;
72864;SDS011;61000;48.120;11.548;2023-11-22T02:42:32;4.43;;;3.88;;
72864;SDS011;61000;48.120;11.548;2023-11-22T02:45:00;5.10;;;3.95;;
72864;SDS011;61000;48.120;11.548;2023-11-22T02:47:27;5.13;;;4.20;;
72864;SDS011;61000;48.120;11.548;2023-11-22T02:49:54;5.45;;;4.05;;
72864;SDS011;61000;48.120;11.548;2023-11-22T02:52:21;4.93;;;4.00;;
72864;SDS011;61000;48.120;11.548;2023-11-22T02:54:49;5.63;;;4.53;;
72864;SDS011;61000;48.120;11.548;2023-11-22T02:57:16;4.40;;;4.00;;
72864;SDS011;61000;48.120;11.548;2023-11-22T02:59:44;4.75;;;4.28;;
72864;SDS011;61000;48.120;11.548;2023-11-22T03:02:11;4.43;;;4.03;;
72864;SDS011;61000;48.120;11.548;2023-11-22T03:04:39;7.20;;;4.75;;
72864;SDS011;61000;48.120;11.548;2023-11-22T03:07:06;4.65;;;3.92;;
72864;SDS011;61000;48.120;11.548;2023-11-22T03:09:33;5.50;;;4.35;;
72864;SDS011;61000;48.120;11.548;2023-11-22T03:12:00;5.78;;;3.97;;
72864;SDS011;61000;48.120;11.548;2023-11-22T03:14:27;4.18;;;3.70;;
72864;SDS011;61000;48.120;11.548;2023-11-22T03:16:56;5.43;;;4.10;;
72864;SDS011;61000;48.120;11.548;2023-11-22T03:19:23;4.63;;;3.35;;
72864;SDS011;61000;48.120;11.548;2023-11-22T03:21:50;4.22;;;3.38;;
72864;SDS011;61000;48.120;11.548;2023-11-22T03:24:17;3.92;;;3.50;;
72864;SDS011;61000;48.120;11.548;2023-11-22T03:26:44;3.80;;;3.22;;
72864;SDS011;61000;48.120;11.548;2023-11-22T03:29:12;4.18;;;3.40;;
72864;SDS011;61000;48.120;11.548;2023-11-22T03:31:41;4.18;;;3.78;;
72864;SDS011;61000;48.120;11.548;2023-11-22T03:34:09;3.60;;;3.30;;
72864;SDS011;61000;48.120;11.548;2023-11-22T03:36:36;4.75;;;3.88;;
72864;SDS011;61000;48.120;11.548;2023-11-22T03:39:04;5.15;;;4.25;;
72864;SDS011;61000;48.120;11.548;2023-11-22T03:41:32;3.95;;;3.47;;
72864;SDS011;61000;48.120;11.548;2023-11-22T03:43:59;4.38;;;3.38;;
72864;SDS011;61000;48.120;11.548;2023-11-22T03:46:27;5.05;;;4.25;;
72864;SDS011;61000;48.120;11.548;2023-11-22T03:48:53;5.72;;;4.10;;
72864;SDS011;61000;48.120;11.548;2023-11-22T03:51:22;5.90;;;4.53;;
72864;SDS011;61000;48.120;11.548;2023-11-22T03:53:49;6.38;;;4.22;;
72864;SDS011;61000;48.120;11.548;2023-11-22T03:56:15;5.53;;;4.13;;
72864;SDS011;61000;48.120;11.548;2023-11-22T03:58:42;7.20;;;4.53;;
72864;SDS011;61000;48.120;11.548;2023-11-22T04:01:09;4.82;;;3.97;;
72864;SDS011;61000;48.120;11.548;2023-11-22T04:03:36;6.13;;;4.32;;
72864;SDS011;61000;48.120;11.548;2023-11-22T04:06:03;6.10;;;3.92;;
72864;SDS011;61000;48.120;11.548;2023-11-22T04:08:31;6.93;;;4.70;;
72864;SDS011;61000;48.120;11.548;2023-11-22T04:10:58;6.00;;;4.40;;
72864;SDS011;61000;48.120;11.548;2023-11-22T04:13:25;4.05;;;3.65;;
72864;SDS011;61000;48.120;11.548;2023-11-22T04:15:52;6.00;;;4.60;;
72864;SDS011;61000;48.120;11.548;2023-11-22T04:18:19;5.63;;;4.45;;
72864;SDS011;61000;48.120;11.548;2023-11-22T04:20:46;6.28;;;4.50;;
72864;SDS011;61000;48.120;11.548;2023-11-22T04:23:13;5.55;;;4.38;;
72864;SDS011;61000;48.120;11.548;2023-11-22T04:25:41;7.50;;;4.55;;
72864;SDS011;61000;48.120;11.548;2023-11-22T04:28:08;5.25;;;4.13;;
72864;SDS011;61000;48.120;11.548;2023-11-22T04:30:36;5.22;;;4.18;;
72864;SDS011;61000;48.120;11.548;2023-11-22T04:33:03;5.13;;;4.55;;
72864;SDS011;61000;48.120;11.548;2023-11-22T04:35:29;6.13;;;3.85;;
72864;SDS011;61000;48.120;11.548;2023-11-22T04:37:59;5.20;;;4.20;;
72864;SDS011;61000;48.120;11.548;2023-11-22T04:40:26;8.60;;;5.20;;
72864;SDS011;61000;48.120;11.548;2023-11-22T04:42:54;5.60;;;3.85;;
72864;SDS011;61000;48.120;11.548;2023-11-22T04:45:21;5.47;;;4.57;;
72864;SDS011;61000;48.120;11.548;2023-11-22T04:47:48;4.18;;;3.78;;
72864;SDS011;61000;48.120;11.548;2023-11-22T04:50:15;4.22;;;3.83;;
72864;SDS011;61000;48.120;11.548;2023-11-22T04:52:42;4.28;;;3.60;;
72864;SDS011;61000;48.120;11.548;2023-11-22T04:55:09;4.25;;;3.72;;
72864;SDS011;61000;48.120;11.548;2023-11-22T04:57:36;5.43;;;3.83;;
72864;SDS011;61000;48.120;11.548;2023-11-22T05:00:07;6.40;;;4.57;;
72864;SDS011;61000;48.120;11.548;2023-11-22T05:02:34;5.50;;;3.75;;
72864;SDS011;61000;48.120;11.548;2023-11-22T05:05:01;3.78;;;3.40;;
72864;SDS011;61000;48.120;11.548;2023-11-22T05:07:28;4.45;;;4.05;;
72864;SDS011;61000;48.120;11.548;2023-11-22T05:09:55;3.90;;;3.60;;
72864;SDS011;61000;48.120;11.548;2023-11-22T05:12:22;5.90;;;3.63;;
72864;SDS011;61000;48.120;11.548;2023-11-22T05:14:49;4.90;;;3.92;;
72864;SDS011;61000;48.120;11.548;2023-11-22T05:17:17;5.20;;;4.32;;
72864;SDS011;61000;48.120;11.548;2023-11-22T05:19:45;6.95;;;4.25;;
72864;SDS011;61000;48.120;11.548;2023-11-22T05:22:11;6.80;;;4.47;;
72864;SDS011;61000;48.120;11.548;2023-11-22T05:24:38;4.82;;;3.80;;
72864;SDS011;61000;48.120;11.548;2023-11-22T05:27:06;4.13;;;3.72;;
72864;SDS011;61000;48.120;11.548;2023-11-22T05:29:33;5.63;;;4.28;;
72864;SDS011;61000;48.120;11.548;2023-11-22T05:32:00;6.35;;;4.22;;
72864;SDS011;61000;48.120;11.548;2023-11-22T05:34:29;6.57;;;4.53;;
72864;SDS011;61000;48.120;11.548;2023-11-22T05:36:56;5.60;;;4.32;;
72864;SDS011;61000;48.120;11.548;2023-11-22T05:39:23;7.38;;;4.32;;
72864;SDS011;61000;48.120;11.548;2023-11-22T05:41:49;9.38;;;5.05;;
72864;SDS011;61000;48.120;11.548;2023-11-22T05:44:16;8.00;;;4.60;;
72864;SDS011;61000;48.120;11.548;2023-11-22T05:46:43;4.72;;;3.97;;
72864;SDS011;61000;48.120;11.548;2023-11-22T05:49:10;4.75;;;3.90;;
72864;SDS011;61000;48.120;11.548;2023-11-22T05:51:39;4.05;;;3.65;;
72864;SDS011;61000;48.120;11.548;2023-11-22T05:54:06;4.50;;;3.40;;
72864;SDS011;61000;48.120;11.548;2023-11-22T05:56:33;3.55;;;3.25;;
72864;SDS011;61000;48.120;11.548;2023-11-22T05:59:00;5.93;;;4.03;;
72864;SDS011;61000;48.120;11.548;2023-11-22T06:01:26;5.03;;;3.42;;
72864;SDS011;61000;48.120;11.548;2023-11-22T06:03:53;4.25;;;3.60;;
72864;SDS011;61000;48.120;11.548;2023-11-22T06:06:20;4.57;;;4.00;;
72864;SDS011;61000;48.120;11.548;2023-11-22T06:08:49;4.78;;;3.72;;
72864;SDS011;61000;48.120;11.548;2023-11-22T06:11:16;5.75;;;3.90;;
72864;SDS011;61000;48.120;11.548;2023-11-22T06:13:42;5.38;;;3.60;;
72864;SDS011;61000;48.120;11.548;2023-11-22T06:16:11;4.38;;;3.53;;
72864;SDS011;61000;48.120;11.548;2023-11-22T06:18:38;5.07;;;3.65;;
72864;SDS011;61000;48.120;11.548;2023-11-22T06:21:05;4.70;;;4.15;;
72864;SDS011;61000;48.120;11.548;2023-11-22T06:23:32;5.47;;;4.38;;
72864;SDS011;61000;48.120;11.548;2023-11-22T06:26:00;5.22;;;4.35;;
72864;SDS011;61000;48.120;11.548;2023-11-22T06:28:28;4.15;;;3.47;;
72864;SDS011;61000;48.120;11.548;2023-11-22T06:30:55;4.05;;;3.50;;
72864;SDS011;61000;48.120;11.548;2023-11-22T06:33:22;7.93;;;5.35;;
72864;SDS011;61000;48.120;11.548;2023-11-22T06:35:49;10.95;;;5.03;;
72864;SDS011;61000;48.120;11.548;2023-11-22T06:38:16;5.90;;;5.10;;
72864;SDS011;61000;48.120;11.548;2023-11-22T06:40:43;8.02;;;5.85;;
72864;SDS011;61000;48.120;11.548;2023-11-22T06:43:11;8.90;;;6.40;;
72864;SDS011;61000;48.120;11.548;2023-11-22T06:45:38;8.13;;;6.45;;
72864;SDS011;61000;48.120;11.548;2023-11-22T06:48:06;9.77;;;6.78;;
72864;SDS011;61000;48.120;11.548;2023-11-22T06:50:33;8.15;;;6.78;;
72864;SDS011;61000;48.120;11.548;2023-11-22T06:53:00;9.25;;;6.25;;
72864;SDS011;61000;48.120;11.548;2023-11-22T06:55:28;18.35;;;9.63;;
72864;SDS011;61000;48.120;11.548;2023-11-22T06:57:56;12.07;;;7.55;;
72864;SDS011;61000;48.120;11.548;2023-11-22T07:00:24;10.93;;;7.18;;
72864;SDS011;61000;48.120;11.548;2023-11-22T07:02:52;9.70;;;7.55;;
72864;SDS011;61000;48.120;11.548;2023-11-22T07:05:19;11.43;;;6.70;;
72864;SDS011;61000;48.120;11.548;2023-11-22T07:07:46;11.77;;;8.02;;
72864;SDS011;61000;48.120;11.548;2023-11-22T07:10:13;10.30;;;6.72;;
72864;SDS011;61000;48.120;11.548;2023-11-22T07:12:40;10.20;;;7.22;;
72864;SDS011;61000;48.120;11.548;2023-11-22T07:15:08;11.75;;;6.50;;
72864;SDS011;61000;48.120;11.548;2023-11-22T07:17:37;7.95;;;6.50;;
72864;SDS011;61000;48.120;11.548;2023-11-22T07:20:05;9.38;;;6.50;;
72864;SDS011;61000;48.120;11.548;2023-11-22T07:22:34;7.07;;;5.80;;
72864;SDS011;61000;48.120;11.548;2023-11-22T07:25:01;7.53;;;5.88;;
72864;SDS011;61000;48.120;11.548;2023-11-22T07:27:29;8.95;;;6.63;;
72864;SDS011;61000;48.120;11.548;2023-11-22T07:29:56;9.35;;;5.85;;
72864;SDS011;61000;48.120;11.548;2023-11-22T07:32:23;9.15;;;6.63;;
72864;SDS011;61000;48.120;11.548;2023-11-22T07:34:52;7.22;;;5.80;;
72864;SDS011;61000;48.120;11.548;2023-11-22T07:37:21;8.82;;;6.22;;
72864;SDS011;61000;48.120;11.548;2023-11-22T07:39:49;7.32;;;5.82;;
72864;SDS011;61000;48.120;11.548;2023-11-22T07:42:16;7.10;;;5.88;;
72864;SDS011;61000;48.120;11.548;2023-11-22T07:44:43;7.80;;;5.93;;
72864;SDS011;61000;48.120;11.548;2023-11-22T07:47:10;9.57;;;6.95;;
72864;SDS011;61000;48.120;11.548;2023-11-22T07:49:38;8.38;;;6.55;;
72864;SDS011;61000;48.120;11.548;2023-11-22T07:52:08;8.38;;;6.25;;
72864;SDS011;61000;48.120;11.548;2023-11-22T07:54:38;8.73;;;6.43;;
72864;SDS011;61000;48.120;11.548;2023-11-22T07:57:05;10.15;;;6.38;;
72864;SDS011;61000;48.120;11.548;2023-11-22T07:59:32;8.35;;;6.30;;
72864;SDS011;61000;48.120;11.548;2023-11-22T08:01:59;8.30;;;6.07;;
72864;SDS011;61000;48.120;11.548;2023-11-22T08:04:27;7.72;;;6.07;;
72864;SDS011;61000;48.120;11.548;2023-11-22T08:06:57;8.18;;;6.72;;
72864;SDS011;61000;48.120;11.548;2023-11-22T08:09:25;9.23;;;7.10;;
72864;SDS011;61000;48.120;11.548;2023-11-22T08:11:56;8.65;;;6.63;;
72864;SDS011;61000;48.120;11.548;2023-11-22T08:14:23;9.60;;;6.93;;
72864;SDS011;61000;48.120;11.548;2023-11-22T08:16:52;9.57;;;7.03;;
72864;SDS011;61000;48.120;11.548;2023-11-22T08:19:19;13.85;;;7.20;;
72864;SDS011;61000;48.120;11.548;2023-11-22T08:21:47;12.70;;;7.90;;
72864;SDS011;61000;48.120;11.548;2023-11-22T08:24:14;11.30;;;7.15;;
72864;SDS011;61000;48.120;11.548;2023-11-22T08:26:43;14.13;;;8.10;;
72864;SDS011;61000;48.120;11.548;2023-11-22T08:29:10;10.43;;;7.43;;
72864;SDS011;61000;48.120;11.548;2023-11-22T08:31:37;11.40;;;7.43;;
72864;SDS011;61000;48.120;11.548;2023-11-22T08:34:04;10.77;;;6.68;;
72864;SDS011;61000;48.120;11.548;2023-11-22T08:36:32;9.25;;;6.85;;
72864;SDS011;61000;48.120;11.548;2023-11-22T08:38:59;10.88;;;7.35;;
72864;SDS011;61000;48.120;11.548;2023-11-22T08:41:27;10.38;;;6.60;;
72864;SDS011;61000;48.120;11.548;2023-11-22T08:43:56;9.23;;;6.65;;
72864;SDS011;61000;48.120;11.548;2023-11-22T08:46:23;12.52;;;8.85;;
72864;SDS011;61000;48.120;11.548;2023-11-22T08:48:50;12.50;;;7.43;;
72864;SDS011;61000;48.120;11.548;2023-11-22T08:51:17;10.82;;;7.50;;
72864;SDS011;61000;48.120;11.548;2023-11-22T08:53:44;11.27;;;6.40;;
72864;SDS011;61000;48.120;11.548;2023-11-22T08:56:10;8.77;;;6.47;;
72864;SDS011;61000;48.120;11.548;2023-11-22T08:58:37;10.18;;;7.35;;
72864;SDS011;61000;48.120;11.548;2023-11-22T09:01:06;10.07;;;6.75;;
72864;SDS011;61000;48.120;11.548;2023-11-22T09:03:33;6.85;;;5.60;;
72864;SDS011;61000;48.120;11.548;2023-11-22T09:06:00;9.73;;;6.82;;
72864;SDS011;61000;48.120;11.548;2023-11-22T09:08:28;16.02;;;8.05;;
72864;SDS011;61000;48.120;11.548;2023-11-22T09:10:55;13.32;;;8.80;;
72864;SDS011;61000;48.120;11.548;2023-11-22T09:13:22;10.48;;;8.40;;
72864;SDS011;61000;48.120;11.548;2023-11-22T09:15:49;14.85;;;8.25;;
72864;SDS011;61000;48.120;11.548;2023-11-22T09:18:18;12.15;;;8.38;;
72864;SDS011;61000;48.120;11.548;2023-11-22T09:20:47;13.48;;;8.57;;
72864;SDS011;61000;48.120;11.548;2023-11-22T09:23:13;13.57;;;8.80;;
72864;SDS011;61000;48.120;11.548;2023-11-22T09:25:40;11.82;;;7.38;;
72864;SDS011;61000;48.120;11.548;2023-11-22T09:28:07;10.82;;;7.95;;
72864;SDS011;61000;48.120;11.548;2023-11-22T09:30:34;12.82;;;7.82;;
72864;SDS011;61000;48.120;11.548;2023-11-22T09:33:04;11.88;;;7.80;;
72864;SDS011;61000;48.120;11.548;2023-11-22T09:35:34;9.60;;;7.28;;
72864;SDS011;61000;48.120;11.548;2023-11-22T09:38:01;10.82;;;7.75;;
72864;SDS011;61000;48.120;11.548;2023-11-22T09:40:29;9.20;;;7.25;;
72864;SDS011;61000;48.120;11.548;2023-11-22T09:42:57;10.70;;;8.63;;
72864;SDS011;61000;48.120;11.548;2023-11-22T09:45:25;11.40;;;8.05;;
72864;SDS011;61000;48.120;11.548;2023-11-22T09:47:53;9.45;;;6.88;;
72864;SDS011;61000;48.120;11.548;2023-11-22T09:50:23;9.13;;;7.10;;
72864;SDS011;61000;48.120;11.548;2023-11-22T09:53:02;9.95;;;6.85;;
72864;SDS011;61000;48.120;11.548;2023-11-22T09:55:34;8.57;;;6.95;;
72864;SDS011;61000;48.120;11.548;2023-11-22T09:58:02;11.68;;;8.27;;
72864;SDS011;61000;48.120;11.548;2023-11-22T10:00:30;8.60;;;6.88;;
72864;SDS011;61000;48.120;11.548;2023-11-22T10:02:58;8.80;;;7.20;;
72864;SDS011;61000;48.120;11.548;2023-11-22T10:05:25;8.55;;;6.53;;
72864;SDS011;61000;48.120;11.548;2023-11-22T10:07:53;8.90;;;6.60;;
72864;SDS011;61000;48.120;11.548;2023-11-22T10:10:22;8.77;;;6.35;;
72864;SDS011;61000;48.120;11.548;2023-11-22T10:12:52;12.80;;;7.50;;
72864;SDS011;61000;48.120;11.548;2023-11-22T10:15:21;13.23;;;7.53;;
72864;SDS011;61000;48.120;11.548;2023-11-22T10:17:53;8.52;;;6.15;;
72864;SDS011;61000;48.120;11.548;2023-11-22T10:20:23;8.38;;;6.53;;
72864;SDS011;61000;48.120;11.548;2023-11-22T10:22:51;7.88;;;6.07;;
72864;SDS011;61000;48.120;11.548;2023-11-22T10:25:19;6.32;;;5.38;;
72864;SDS011;61000;48.120;11.548;2023-11-22T10:27:49;10.55;;;6.30;;
72864;SDS011;61000;48.120;11.548;2023-11-22T10:30:17;8.48;;;6.00;;
72864;SDS011;61000;48.120;11.548;2023-11-22T10:32:45;7.03;;;5.93;;
72864;SDS011;61000;48.120;11.548;2023-11-22T10:35:12;10.10;;;7.13;;
72864;SDS011;61000;48.120;11.548;2023-11-22T10:37:41;9.27;;;6.28;;
72864;SDS011;61000;48.120;11.548;2023-11-22T10:40:10;7.25;;;6.05;;
72864;SDS011;61000;48.120;11.548;2023-11-22T10:42:40;9.55;;;6.75;;
72864;SDS011;61000;48.120;11.548;2023-11-22T10:45:09;12.73;;;7.20;;
72864;SDS011;61000;48.120;11.548;2023-11-22T10:47:37;8.75;;;6.65;;
72864;SDS011;61000;48.120;11.548;2023-11-22T10:50:07;8.82;;;6.25;;
72864;SDS011;61000;48.120;11.548;2023-11-22T10:52:37;7.38;;;5.88;;
72864;SDS011;61000;48.120;11.548;2023-11-22T10:55:08;7.82;;;6.07;;
72864;SDS011;61000;48.120;11.548;2023-11-22T10:57:40;9.52;;;6.55;;
72864;SDS011;61000;48.120;11.548;2023-11-22T11:00:15;7.45;;;5.38;;
72864;SDS011;61000;48.120;11.548;2023-11-22T11:02:44;6.30;;;5.05;;
72864;SDS011;61000;48.120;11.548;2023-11-22T11:05:15;5.30;;;4.78;;
72864;SDS011;61000;48.120;11.548;2023-11-22T11:07:47;6.10;;;5.05;;
72864;SDS011;61000;48.120;11.548;2023-11-22T11:10:20;5.05;;;4.35;;
72864;SDS011;61000;48.120;11.548;2023-11-22T11:12:48;6.30;;;5.28;;
72864;SDS011;61000;48.120;11.548;2023-11-22T11:15:16;4.90;;;4.40;;
72864;SDS011;61000;48.120;11.548;2023-11-22T11:17:44;5.90;;;5.05;;
72864;SDS011;61000;48.120;11.548;2023-11-22T11:20:15;8.20;;;5.22;;
72864;SDS011;61000;48.120;11.548;2023-11-22T11:22:43;7.05;;;4.95;;
72864;SDS011;61000;48.120;11.548;2023-11-22T11:25:13;5.30;;;4.80;;
72864;SDS011;61000;48.120;11.548;2023-11-22T11:27:43;5.72;;;5.10;;
72864;SDS011;61000;48.120;11.548;2023-11-22T11:33:09;6.28;;;5.00;;
72864;SDS011;61000;48.120;11.548;2023-11-22T11:35:37;6.22;;;4.97;;
72864;SDS011;61000;48.120;11.548;2023-11-22T11:38:05;4.70;;;4.30;;
72864;SDS011;61000;48.120;11.548;2023-11-22T11:40:34;5.78;;;4.40;;
72864;SDS011;61000;48.120;11.548;2023-11-22T11:43:02;7.47;;;6.18;;
72864;SDS011;61000;48.120;11.548;2023-11-22T11:45:34;7.55;;;5.78;;
72864;SDS011;61000;48.120;11.548;2023-11-22T11:48:06;6.20;;;5.60;;
72864;SDS011;61000;48.120;11.548;2023-11-22T11:50:33;11.30;;;10.30;;
72864;SDS011;61000;48.120;11.548;2023-11-22T11:53:00;9.90;;;8.90;;
72864;SDS011;61000;48.120;11.548;2023-11-22T11:55:27;5.70;;;4.28;;
72864;SDS011;61000;48.120;11.548;2023-11-22T11:57:54;5.82;;;4.32;;
72864;SDS011;61000;48.120;11.548;2023-11-22T12:00:21;5.30;;;4.80;;
72864;SDS011;61000;48.120;11.548;2023-11-22T12:02:50;7.63;;;5.50;;
72864;SDS011;61000;48.120;11.548;2023-11-22T12:05:19;5.70;;;4.55;;
72864;SDS011;61000;48.120;11.548;2023-11-22T12:07:47;6.63;;;5.20;;
72864;SDS011;61000;48.120;11.548;2023-11-22T12:10:14;5.18;;;4.75;;
72864;SDS011;61000;48.120;11.548;2023-11-22T12:12:43;6.90;;;4.82;;
72864;SDS011;61000;48.120;11.548;2023-11-22T12:15:11;5.28;;;4.30;;
72864;SDS011;61000;48.120;11.548;2023-11-22T12:17:40;5.43;;;4.47;;
72864;SDS011;61000;48.120;11.548;2023-11-22T12:20:10;5.22;;;4.45;;
72864;SDS011;61000;48.120;11.548;2023-11-22T12:22:40;7.00;;;5.72;;
72864;SDS011;61000;48.120;11.548;2023-11-22T12:25:08;6.85;;;5.28;;
72864;SDS011;61000;48.120;11.548;2023-11-22T12:27:41;5.30;;;4.80;;
72864;SDS011;61000;48.120;11.548;2023-11-22T12:30:09;5.22;;;4.72;;
72864;SDS011;61000;48.120;11.548;2023-11-22T12:32:53;6.15;;;5.30;;
72864;SDS011;61000;48.120;11.548;2023-11-22T12:35:21;7.00;;;6.05;;
72864;SDS011;61000;48.120;11.548;2023-11-22T12:37:49;6.70;;;5.30;;
72864;SDS011;61000;48.120;11.548;2023-11-22T12:40:19;7.28;;;5.38;;
72864;SDS011;61000;48.120;11.548;2023-11-22T12:42:47;7.68;;;5.93;;
72864;SDS011;61000;48.120;11.548;2023-11-22T12:45:18;7.78;;;6.75;;
72864;SDS011;61000;48.120;11.548;2023-11-22T12:47:46;6.75;;;5.75;;
72864;SDS011;61000;48.120;11.548;2023-11-22T12:50:29;6.93;;;5.80;;
72864;SDS011;61000;48.120;11.548;2023-11-22T12:53:10;8.05;;;4.82;;
72864;SDS011;61000;48.120;11.548;2023-11-22T12:55:41;5.55;;;4.95;;
72864;SDS011;61000;48.120;11.548;2023-11-22T12:58:09;6.80;;;5.68;;
72864;SDS011;61000;48.120;11.548;2023-11-22T13:00:38;6.35;;;5.70;;
72864;SDS011;61000;48.120;11.548;2023-11-22T13:03:05;6.57;;;5.25;;
72864;SDS011;61000;48.120;11.548;2023-11-22T13:05:33;8.88;;;5.85;;
72864;SDS011;61000;48.120;11.548;2023-11-22T13:08:00;8.45;;;5.85;;
72864;SDS011;61000;48.120;11.548;2023-11-22T13:10:30;8.10;;;5.32;;
72864;SDS011;61000;48.120;11.548;2023-11-22T13:12:57;6.85;;;5.75;;
72864;SDS011;61000;48.120;11.548;2023-11-22T13:15:24;9.00;;;6.93;;
72864;SDS011;61000;48.120;11.548;2023-11-22T13:17:51;8.48;;;7.20;;
72864;SDS011;61000;48.120;11.548;2023-11-22T13:20:21;6.55;;;5.30;;
72864;SDS011;61000;48.120;11.548;2023-11-22T13:22:49;7.63;;;6.40;;
72864;SDS011;61000;48.120;11.548;2023-11-22T13:25:16;9.05;;;6.70;;
72864;SDS011;61000;48.120;11.548;2023-11-22T13:27:45;7.72;;;6.70;;
72864;SDS011;61000;48.120;11.548;2023-11-22T13:30:13;9.20;;;6.30;;
72864;SDS011;61000;48.120;11.548;2023-11-22T13:32:41;7.25;;;6.05;;
72864;SDS011;61000;48.120;11.548;2023-11-22T13:35:08;6.57;;;5.97;;
72864;SDS011;61000;48.120;11.548;2023-11-22T13:37:40;6.65;;;5.68;;
72864;SDS011;61000;48.120;11.548;2023-11-22T13:40:09;8.05;;;5.85;;
72864;SDS011;61000;48.120;11.548;2023-11-22T13:42:40;7.90;;;5.82;;
72864;SDS011;61000;48.120;11.548;2023-11-22T13:45:10;6.45;;;5.78;;
72864;SDS011;61000;48.120;11.548;2023-11-22T13:47:40;10.48;;;6.53;;
72864;SDS011;61000;48.120;11.548;2023-11-22T13:50:09;6.07;;;5.38;;
72864;SDS011;61000;48.120;11.548;2023-11-22T13:52:36;5.75;;;5.18;;
72864;SDS011;61000;48.120;11.548;2023-11-22T13:55:04;9.10;;;6.32;;
72864;SDS011;61000;48.120;11.548;2023-11-22T13:57:35;9.07;;;6.07;;
72864;SDS011;61000;48.120;11.548;2023-11-22T14:00:02;6.22;;;4.72;;
72864;SDS011;61000;48.120;11.548;2023-11-22T14:02:33;7.20;;;5.63;;
72864;SDS011;61000;48.120;11.548;2023-11-22T14:05:00;9.07;;;6.57;;
72864;SDS011;61000;48.120;11.548;2023-11-22T14:07:28;9.10;;;6.25;;
72864;SDS011;61000;48.120;11.548;2023-11-22T14:09:55;9.85;;;5.55;;
72864;SDS011;61000;48.120;11.548;2023-11-22T14:12:22;7.80;;;5.97;;
72864;SDS011;61000;48.120;11.548;2023-11-22T14:14:49;7.28;;;6.05;;
72864;SDS011;61000;48.120;11.548;2023-11-22T14:17:16;9.10;;;7.28;;
72864;SDS011;61000;48.120;11.548;2023-11-22T14:19:47;5.85;;;5.28;;
72864;SDS011;61000;48.120;11.548;2023-11-22T14:22:14;6.30;;;5.53;;
72864;SDS011;61000;48.120;11.548;2023-11-22T14:24:42;6.35;;;5.35;;
72864;SDS011;61000;48.120;11.548;2023-11-22T14:27:10;11.73;;;8.75;;
72864;SDS011;61000;48.120;11.548;2023-11-22T14:29:37;8.80;;;6.43;;
72864;SDS011;61000;48.120;11.548;2023-11-22T14:32:04;7.40;;;6.50;;
72864;SDS011;61000;48.120;11.548;2023-11-22T14:34:32;6.20;;;5.60;;
72864;SDS011;61000;48.120;11.548;2023-11-22T14:37:00;7.53;;;5.43;;